createdAt,value
2022-09-03T00:02:26.863Z,100889.66
2022-09-03T00:05:00.266Z,100873.31
2022-09-03T00:08:05.244Z,100886.16
2022-09-03T00:10:41.046Z,100838.81
2022-09-03T00:13:09.060Z,100850.84
2022-09-03T00:15:36.745Z,100875.63
2022-09-03T00:18:13.874Z,100848.38
2022-09-03T00:21:01.837Z,100865.22
2022-09-03T00:23:31.117Z,100857.66
2022-09-03T00:26:09.901Z,100855.09
2022-09-03T00:28:46.262Z,100868.09
2022-09-03T00:31:31.763Z,100863.84
2022-09-03T00:34:04.866Z,100828.75
2022-09-03T00:36:37.693Z,100842.56
2022-09-03T00:39:04.345Z,100860.75
2022-09-03T00:41:43.475Z,100851.41
2022-09-03T00:44:24.979Z,100854.97
2022-09-03T00:46:51.459Z,100856.00
2022-09-03T00:49:51.556Z,100815.81
2022-09-03T00:52:50.338Z,100852.84
2022-09-03T00:55:26.009Z,100850.47
2022-09-03T00:58:23.366Z,100847.16
2022-09-03T01:00:51.392Z,100816.34
2022-09-03T01:03:31.749Z,100842.91
2022-09-03T01:06:16.920Z,100846.75
2022-09-03T01:08:57.453Z,100850.16
2022-09-03T01:11:59.660Z,100843.19
2022-09-03T01:14:26.140Z,100831.72
2022-09-03T01:17:31.444Z,100836.22
2022-09-03T01:20:11.561Z,100806.31
2022-09-03T01:22:43.826Z,100833.59
2022-09-03T01:25:10.243Z,100826.63
2022-09-03T01:27:42.764Z,100834.63
2022-09-03T01:30:17.498Z,100824.34
2022-09-03T01:33:00.439Z,100810.66
2022-09-03T01:35:42.123Z,100818.97
2022-09-03T01:38:31.877Z,100820.84
2022-09-03T01:41:22.831Z,100817.50
2022-09-03T01:44:15.181Z,100807.25
2022-09-03T01:46:43.537Z,100797.78
2022-09-03T01:49:38.222Z,100805.66
2022-09-03T01:52:25.902Z,100802.47
2022-09-03T01:55:05.764Z,100803.41
2022-09-03T01:57:42.444Z,100799.44
2022-09-03T02:00:12.618Z,100809.03
2022-09-03T02:02:44.865Z,100791.38
2022-09-03T02:05:22.485Z,100806.06
2022-09-03T02:07:54.422Z,100805.44
2022-09-03T02:10:28.774Z,100803.84
2022-09-03T02:13:01.721Z,100805.81
2022-09-03T02:15:28.720Z,100806.81
2022-09-03T02:17:58.753Z,100780.56
2022-09-03T02:20:28.490Z,100817.50
2022-09-03T02:22:57.446Z,100776.47
2022-09-03T02:25:30.461Z,100810.94
2022-09-03T02:27:58.020Z,100776.88
2022-09-03T02:30:24.496Z,100815.53
2022-09-03T02:32:51.035Z,100806.00
2022-09-03T02:35:18.057Z,100805.38
2022-09-03T02:37:44.544Z,100803.53
2022-09-03T02:40:11.339Z,100766.88
2022-09-03T02:42:38.203Z,100808.91
2022-09-03T02:45:16.312Z,100813.69
2022-09-03T02:47:45.503Z,100806.75
2022-09-03T02:50:11.947Z,100804.97
2022-09-03T02:52:38.439Z,100810.41
2022-09-03T02:55:05.833Z,100805.38
2022-09-03T02:57:32.323Z,100811.66
2022-09-03T02:59:58.789Z,100807.47
2022-09-03T03:02:25.426Z,100805.84
2022-09-03T03:04:51.945Z,100807.78
2022-09-03T03:07:18.468Z,100812.22
2022-09-03T03:09:44.919Z,100811.50
2022-09-03T03:12:11.416Z,100812.44
2022-09-03T03:14:37.886Z,100812.50
2022-09-03T03:17:05.080Z,100816.88
2022-09-03T03:19:31.628Z,100828.31
2022-09-03T03:21:58.132Z,100824.88
2022-09-03T03:24:24.574Z,100816.19
2022-09-03T03:26:51.055Z,100809.34
2022-09-03T03:29:17.720Z,100816.38
2022-09-03T03:31:44.246Z,100784.56
2022-09-03T03:34:10.750Z,100820.75
2022-09-03T03:36:37.736Z,100821.69
2022-09-03T03:39:04.420Z,100823.47
2022-09-03T03:41:33.347Z,100782.19
2022-09-03T03:44:07.343Z,100812.19
2022-09-03T03:46:39.593Z,100811.47
2022-09-03T03:49:07.855Z,100821.16
2022-09-03T03:51:35.403Z,100820.44
2022-09-03T03:54:05.302Z,100820.56
2022-09-03T03:56:33.428Z,100820.63
2022-09-03T03:59:00.276Z,100822.47
2022-09-03T04:01:28.422Z,100808.66
2022-09-03T04:03:56.248Z,100815.63
2022-09-03T04:06:23.764Z,100825.22
2022-09-03T04:08:50.559Z,100820.88
2022-09-03T04:11:20.013Z,100780.41
2022-09-03T04:13:47.938Z,100812.97
2022-09-03T04:16:19.983Z,100815.56
2022-09-03T04:18:47.435Z,100813.81
2022-09-03T04:21:17.344Z,100823.50
2022-09-03T04:23:45.746Z,100821.00
2022-09-03T04:26:15.484Z,100783.28
2022-09-03T04:28:42.277Z,100816.81
2022-09-03T04:31:11.309Z,100822.91
2022-09-03T04:33:39.402Z,100817.72
2022-09-03T04:36:09.901Z,100825.63
2022-09-03T04:38:38.772Z,100824.88
2022-09-03T04:41:07.346Z,100812.88
2022-09-03T04:43:35.771Z,100811.13
2022-09-03T04:46:05.536Z,100801.88
2022-09-03T04:48:33.389Z,100821.81
2022-09-03T04:51:12.176Z,100807.13
2022-09-03T04:53:42.272Z,100772.81
2022-09-03T04:56:20.690Z,100814.09
2022-09-03T04:58:50.994Z,100817.59
2022-09-03T05:01:20.327Z,100807.34
2022-09-03T05:03:47.837Z,100808.06
2022-09-03T05:06:14.853Z,100809.91
2022-09-03T05:08:41.307Z,100811.66
2022-09-03T05:11:08.049Z,100802.16
2022-09-03T05:13:36.128Z,100816.06
2022-09-03T05:16:08.827Z,100783.50
2022-09-03T05:18:35.961Z,100810.09
2022-09-03T05:21:14.059Z,100809.44
2022-09-03T05:23:42.773Z,100796.56
2022-09-03T05:26:12.779Z,100770.81
2022-09-03T05:28:41.584Z,100775.94
2022-09-03T05:31:16.265Z,100804.41
2022-09-03T05:33:48.155Z,100799.31
2022-09-03T05:36:17.971Z,100769.50
2022-09-03T05:38:45.327Z,100812.56
2022-09-03T05:41:14.013Z,100789.44
2022-09-03T05:43:40.723Z,100810.03
2022-09-03T05:46:09.668Z,100818.75
2022-09-03T05:48:37.741Z,100803.78
2022-09-03T05:51:15.242Z,100803.78
2022-09-03T05:53:42.722Z,100807.09
2022-09-03T05:56:14.874Z,100772.75
2022-09-03T05:58:43.940Z,100800.75
2022-09-03T06:01:12.608Z,100764.59
2022-09-03T06:03:39.266Z,100804.00
2022-09-03T06:06:06.046Z,100799.63
2022-09-03T06:08:33.187Z,100795.88
2022-09-03T06:11:02.723Z,100790.56
2022-09-03T06:13:29.168Z,100794.56
2022-09-03T06:16:01.360Z,100793.53
2022-09-03T06:18:28.912Z,100796.06
2022-09-03T06:20:56.936Z,100792.22
2022-09-03T06:23:24.265Z,100805.78
2022-09-03T06:26:20.010Z,100807.25
2022-09-03T06:28:47.316Z,100802.59
2022-09-03T06:31:19.029Z,100776.53
2022-09-03T06:33:46.456Z,100786.56
2022-09-03T06:36:18.860Z,100788.13
2022-09-03T06:38:46.844Z,100810.88
2022-09-03T06:41:18.011Z,100809.72
2022-09-03T06:43:44.526Z,100806.03
2022-09-03T06:46:14.181Z,100789.16
2022-09-03T06:48:41.694Z,100812.47
2022-09-03T06:51:11.734Z,100824.47
2022-09-03T06:53:40.645Z,100804.06
2022-09-03T06:56:12.833Z,100834.75
2022-09-03T06:58:41.457Z,100778.72
2022-09-03T07:01:14.108Z,100818.84
2022-09-03T07:03:42.381Z,100831.63
2022-09-03T07:06:14.542Z,100849.84
2022-09-03T07:08:41.454Z,100840.91
2022-09-03T07:11:10.640Z,100796.88
2022-09-03T07:13:45.862Z,100845.78
2022-09-03T07:16:15.376Z,100845.69
2022-09-03T07:18:42.703Z,100841.16
2022-09-03T07:21:14.644Z,100854.13
2022-09-03T07:23:41.330Z,100852.06
2022-09-03T07:26:20.316Z,100796.25
2022-09-03T07:28:47.297Z,100859.44
2022-09-03T07:31:17.630Z,100865.28
2022-09-03T07:33:44.195Z,100859.69
2022-09-03T07:36:13.770Z,100845.53
2022-09-03T07:38:41.795Z,100860.50
2022-09-03T07:41:09.548Z,100827.38
2022-09-03T07:43:41.058Z,100824.44
2022-09-03T07:46:07.884Z,100855.63
2022-09-03T07:48:37.492Z,100855.09
2022-09-03T07:51:04.285Z,100852.84
2022-09-03T07:53:30.787Z,100849.78
2022-09-03T07:56:09.154Z,100850.88
2022-09-03T07:58:36.916Z,100852.91
2022-09-03T08:01:11.364Z,100854.22
2022-09-03T08:03:39.287Z,100847.34
2022-09-03T08:06:07.477Z,100818.69
2022-09-03T08:08:35.783Z,100802.84
2022-09-03T08:11:06.244Z,100858.84
2022-09-03T08:13:32.729Z,100860.84
2022-09-03T08:15:59.214Z,100860.25
2022-09-03T08:18:25.815Z,100837.66
2022-09-03T08:20:53.249Z,100858.31
2022-09-03T08:23:19.740Z,100870.84
2022-09-03T08:25:46.265Z,100862.38
2022-09-03T08:28:12.795Z,100857.63
2022-09-03T08:30:39.278Z,100871.22
2022-09-03T08:33:05.792Z,100877.00
2022-09-03T08:35:32.339Z,100875.22
2022-09-03T08:37:58.801Z,100886.31
2022-09-03T08:40:25.532Z,100881.78
2022-09-03T08:43:15.030Z,100849.84
2022-09-03T08:45:41.769Z,100880.38
2022-09-03T08:48:25.827Z,100857.25
2022-09-03T08:50:58.184Z,100853.63
2022-09-03T08:53:39.852Z,100890.06
2022-09-03T08:56:13.011Z,100881.88
2022-09-03T08:58:39.594Z,100886.91
2022-09-03T09:01:24.147Z,100889.91
2022-09-03T09:03:56.810Z,100888.22
2022-09-03T09:06:23.276Z,100884.88
2022-09-03T09:09:08.155Z,100889.44
2022-09-03T09:11:46.292Z,100886.22
2022-09-03T09:14:30.913Z,100895.63
2022-09-03T09:17:15.653Z,100887.13
2022-09-03T09:20:00.803Z,100894.88
2022-09-03T09:22:33.104Z,100898.09
2022-09-03T09:25:06.895Z,100890.22
2022-09-03T09:27:33.396Z,100890.63
2022-09-03T09:30:04.174Z,100870.94
2022-09-03T09:32:30.707Z,100892.69
2022-09-03T09:34:57.312Z,100881.97
2022-09-03T09:37:23.831Z,100894.47
2022-09-03T09:39:56.535Z,100892.72
2022-09-03T09:42:23.572Z,100898.06
2022-09-03T09:44:50.382Z,100893.75
2022-09-03T09:47:28.600Z,100890.22
2022-09-03T09:49:57.548Z,100887.63
2022-09-03T09:52:26.204Z,100862.59
2022-09-03T09:55:05.771Z,100855.50
2022-09-03T09:57:32.302Z,100879.66
2022-09-03T10:00:06.182Z,100880.97
2022-09-03T10:02:39.298Z,100886.38
2022-09-03T10:05:15.318Z,100880.22
2022-09-03T10:07:42.051Z,100881.34
2022-09-03T10:10:18.822Z,100872.38
2022-09-03T10:12:50.837Z,100886.44
2022-09-03T10:15:49.894Z,100878.88
2022-09-03T10:18:35.013Z,100883.63
2022-09-03T10:21:03.590Z,100880.22
2022-09-03T10:23:36.947Z,100886.56
2022-09-03T10:26:13.315Z,100860.41
2022-09-03T10:28:41.675Z,100885.91
2022-09-03T10:31:29.973Z,100880.53
2022-09-03T10:34:03.202Z,100861.81
2022-09-03T10:36:39.600Z,100882.94
2022-09-03T10:39:31.861Z,100852.47
2022-09-03T10:42:37.529Z,100881.38
2022-09-03T10:45:29.817Z,100875.75
2022-09-03T10:48:22.582Z,100861.78
2022-09-03T10:50:52.855Z,100862.34
2022-09-03T10:53:37.408Z,100876.66
2022-09-03T10:56:20.979Z,100879.38
2022-09-03T10:59:11.529Z,100872.38
2022-09-03T11:02:11.993Z,100870.97
2022-09-03T11:04:50.458Z,100874.88
2022-09-03T11:07:22.948Z,100843.34
2022-09-03T11:10:10.967Z,100851.22
2022-09-03T11:13:06.753Z,100876.47
2022-09-03T11:15:45.071Z,100859.13
2022-09-03T11:18:28.391Z,100869.66
2022-09-03T11:20:58.079Z,100884.81
2022-09-03T11:23:28.299Z,100855.06
2022-09-03T11:25:59.902Z,100877.03
2022-09-03T11:29:00.037Z,100863.88
2022-09-03T11:31:44.948Z,100874.31
2022-09-03T11:34:48.497Z,100878.69
2022-09-03T11:37:24.378Z,100843.22
2022-09-03T11:40:04.730Z,100868.81
2022-09-03T11:42:37.938Z,100875.59
2022-09-03T11:45:23.430Z,100869.16
2022-09-03T11:47:51.515Z,100875.13
2022-09-03T11:50:17.930Z,100877.78
2022-09-03T11:52:44.487Z,100870.63
2022-09-03T11:55:10.952Z,100871.47
2022-09-03T11:57:42.347Z,100870.88
2022-09-03T12:00:14.822Z,100836.47
2022-09-03T12:02:48.582Z,100840.09
2022-09-03T12:05:36.967Z,100860.63
2022-09-03T12:08:15.597Z,100866.53
2022-09-03T12:10:49.409Z,100858.97
2022-09-03T12:13:31.510Z,100868.91
2022-09-03T12:16:16.070Z,100866.34
2022-09-03T12:18:43.576Z,100854.94
2022-09-03T12:21:11.468Z,100851.56
2022-09-03T12:23:45.187Z,100823.16
2022-09-03T12:26:15.326Z,100850.34
2022-09-03T12:28:44.932Z,100857.41
2022-09-03T12:31:20.378Z,100861.78
2022-09-03T12:33:52.392Z,100863.00
2022-09-03T12:36:19.299Z,100860.34
2022-09-03T12:39:10.303Z,100866.72
2022-09-03T12:41:32.318Z,100856.91
2022-09-03T12:44:00.075Z,100865.22
2022-09-03T12:46:33.629Z,100851.59
2022-09-03T12:49:30.969Z,100853.84
2022-09-03T12:52:05.917Z,100811.59
2022-09-03T12:54:38.426Z,100812.81
2022-09-03T12:57:05.379Z,100864.69
2022-09-03T12:59:35.221Z,100843.22
2022-09-03T13:02:12.702Z,100858.28
2022-09-03T13:04:41.313Z,100856.09
2022-09-03T13:07:34.206Z,100852.34
2022-09-03T13:10:07.175Z,100819.47
2022-09-03T13:12:48.830Z,100847.16
2022-09-03T13:15:22.053Z,100852.50
2022-09-03T13:17:57.895Z,100853.38
2022-09-03T13:20:33.941Z,100831.00
2022-09-03T13:23:19.557Z,100855.88
2022-09-03T13:25:46.131Z,100855.69
2022-09-03T13:28:37.084Z,100858.38
2022-09-03T13:31:35.369Z,100854.00
2022-09-03T13:34:30.299Z,100852.50
2022-09-03T13:37:38.800Z,100855.41
2022-09-03T13:40:31.511Z,100849.34
2022-09-03T13:43:26.992Z,100850.44
2022-09-03T13:46:01.989Z,100820.94
2022-09-03T13:48:38.948Z,100850.06
2022-09-03T13:51:24.739Z,100848.59
2022-09-03T13:54:13.189Z,100820.94
2022-09-03T13:56:48.886Z,100846.63
2022-09-03T13:59:40.360Z,100839.72
2022-09-03T14:02:27.642Z,100844.69
2022-09-03T14:04:57.171Z,100849.34
2022-09-03T14:07:54.160Z,100847.88
2022-09-03T14:10:38.767Z,100812.97
2022-09-03T14:13:22.039Z,100837.63
2022-09-03T14:16:11.396Z,100846.75
2022-09-03T14:18:49.666Z,100809.38
2022-09-03T14:21:34.898Z,100840.19
2022-09-03T14:24:04.101Z,100844.75
2022-09-03T14:26:39.213Z,100814.78
2022-09-03T14:29:12.173Z,100851.03
2022-09-03T14:32:06.194Z,100820.50
2022-09-03T14:35:14.589Z,100847.97
2022-09-03T14:38:08.502Z,100855.22
2022-09-03T14:40:50.818Z,100817.50
2022-09-03T14:43:51.413Z,100837.03
2022-09-03T14:46:36.369Z,100850.00
2022-09-03T14:49:21.592Z,100849.88
2022-09-03T14:52:09.379Z,100855.88
2022-09-03T14:54:59.716Z,100851.53
2022-09-03T14:58:18.798Z,100868.47
2022-09-03T15:00:45.230Z,100867.91
2022-09-03T15:03:39.691Z,100869.97
2022-09-03T15:06:15.084Z,100872.25
2022-09-03T15:09:11.164Z,100867.28
2022-09-03T15:11:49.345Z,100862.66
2022-09-03T15:14:24.365Z,100846.19
2022-09-03T15:16:54.646Z,100865.97
2022-09-03T15:19:48.807Z,100853.41
2022-09-03T15:22:49.893Z,100855.72
2022-09-03T15:25:26.152Z,100851.47
2022-09-03T15:28:14.254Z,100870.63
2022-09-03T15:31:21.619Z,100869.56
2022-09-03T15:34:17.548Z,100877.88
2022-09-03T15:36:49.583Z,100880.00
2022-09-03T15:39:23.230Z,100878.72
2022-09-03T15:41:59.484Z,100847.66
2022-09-03T15:44:34.892Z,100880.75
2022-09-03T15:47:14.487Z,100881.91
2022-09-03T15:49:58.273Z,100888.06
2022-09-03T15:52:46.811Z,100896.28
2022-09-03T15:55:24.997Z,100884.22
2022-09-03T15:58:00.195Z,100887.75
2022-09-03T16:00:29.788Z,100904.53
2022-09-03T16:03:13.313Z,100902.91
2022-09-03T16:05:54.512Z,100903.75
2022-09-03T16:08:28.941Z,100901.84
2022-09-03T16:11:05.675Z,100898.88
2022-09-03T16:13:39.268Z,100867.91
2022-09-03T16:16:11.127Z,100905.28
2022-09-03T16:18:44.609Z,100897.56
2022-09-03T16:21:51.521Z,100903.63
2022-09-03T16:24:24.833Z,100904.06
2022-09-03T16:27:07.374Z,100874.78
2022-09-03T16:29:33.932Z,100906.28
2022-09-03T16:32:12.411Z,100914.28
2022-09-03T16:35:06.959Z,100916.94
2022-09-03T16:38:03.107Z,100920.44
2022-09-03T16:40:38.743Z,100919.81
2022-09-03T16:43:42.858Z,100915.97
2022-09-03T16:47:03.371Z,100922.38
2022-09-03T16:49:38.415Z,100923.00
2022-09-03T16:52:38.651Z,100922.41
2022-09-03T16:55:05.732Z,100923.88
2022-09-03T16:57:46.576Z,100926.63
2022-09-03T17:00:12.941Z,100928.66
2022-09-03T17:02:57.689Z,100926.00
2022-09-03T17:05:34.586Z,100898.88
2022-09-03T17:08:33.956Z,100943.03
2022-09-03T17:11:24.079Z,100939.44
2022-09-03T17:14:16.986Z,100934.75
2022-09-03T17:17:09.342Z,100941.03
2022-09-03T17:19:56.694Z,100929.06
2022-09-03T17:22:26.208Z,100954.28
2022-09-03T17:24:58.369Z,100938.16
2022-09-03T17:27:36.248Z,100952.72
2022-09-03T17:30:02.682Z,100958.34
2022-09-03T17:32:53.680Z,100917.09
2022-09-03T17:35:50.424Z,100954.56
2022-09-03T17:38:42.875Z,100933.16
2022-09-03T17:41:41.076Z,100962.75
2022-09-03T17:44:41.162Z,100957.19
2022-09-03T17:47:45.185Z,100954.75
2022-09-03T17:50:11.669Z,100953.63
2022-09-03T17:52:51.980Z,100929.25
2022-09-03T17:55:31.312Z,100929.16
2022-09-03T17:58:08.968Z,100952.66
2022-09-03T18:00:42.235Z,100938.66
2022-09-03T18:03:23.407Z,100953.63
2022-09-03T18:06:06.150Z,100963.69
2022-09-03T18:09:03.246Z,100959.78
2022-09-03T18:11:41.592Z,100977.69
2022-09-03T18:14:27.822Z,100972.34
2022-09-03T18:17:05.417Z,100981.25
2022-09-03T18:19:57.964Z,100991.28
2022-09-03T18:22:33.921Z,101001.28
2022-09-03T18:25:01.074Z,101008.81
2022-09-03T18:27:51.013Z,101006.50
2022-09-03T18:30:17.667Z,101017.66
2022-09-03T18:32:44.173Z,101013.66
2022-09-03T18:35:11.648Z,101014.94
2022-09-03T18:37:38.621Z,101008.47
2022-09-03T18:40:07.285Z,101015.75
2022-09-03T18:42:52.330Z,101029.25
2022-09-03T18:46:07.902Z,101025.25
2022-09-03T18:48:45.412Z,101025.63
2022-09-03T18:51:40.777Z,101028.69
2022-09-03T18:55:08.392Z,101035.28
2022-09-03T18:57:49.974Z,101040.13
2022-09-03T19:00:16.820Z,101040.47
2022-09-03T19:02:49.237Z,101046.88
2022-09-03T19:05:44.716Z,101042.84
2022-09-03T19:08:21.248Z,101024.50
2022-09-03T19:11:07.246Z,101020.53
2022-09-03T19:13:39.621Z,101054.09
2022-09-03T19:16:32.320Z,101053.28
2022-09-03T19:19:16.786Z,101048.25
2022-09-03T19:21:54.547Z,101055.66
2022-09-03T19:24:29.187Z,101062.59
2022-09-03T19:27:23.607Z,101062.09
2022-09-03T19:30:08.748Z,101050.22
2022-09-03T19:33:07.498Z,101072.06
2022-09-03T19:36:10.427Z,101070.53
2022-09-03T19:39:21.779Z,101081.41
2022-09-03T19:41:53.292Z,101086.00
2022-09-03T19:44:49.418Z,101051.16
2022-09-03T19:47:32.583Z,101051.53
2022-09-03T19:50:14.751Z,101088.56
2022-09-03T19:52:41.190Z,101097.53
2022-09-03T19:55:10.606Z,101110.09
2022-09-03T19:57:38.830Z,101097.19
2022-09-03T20:00:06.454Z,101097.34
2022-09-03T20:02:40.499Z,101091.56
2022-09-03T20:05:11.602Z,101084.16
2022-09-03T20:07:38.971Z,101109.31
2022-09-03T20:10:09.700Z,101053.88
2022-09-03T20:12:43.185Z,101106.16
2022-09-03T20:15:10.179Z,101103.59
2022-09-03T20:17:56.067Z,101108.94
2022-09-03T20:20:44.153Z,101099.66
2022-09-03T20:23:17.637Z,101104.06
2022-09-03T20:25:56.330Z,101108.50
2022-09-03T20:28:47.784Z,101109.59
2022-09-03T20:31:28.318Z,101102.97
2022-09-03T20:34:03.305Z,101105.75
2022-09-03T20:37:03.208Z,101095.75
2022-09-03T20:39:58.916Z,101126.03
2022-09-03T20:42:45.053Z,101096.03
2022-09-03T20:45:18.752Z,101127.03
2022-09-03T20:48:01.681Z,101124.53
2022-09-03T20:50:40.890Z,101132.44
2022-09-03T20:53:22.522Z,101136.88
2022-09-03T20:55:53.052Z,101139.56
2022-09-03T20:58:31.740Z,101138.88
2022-09-03T21:01:05.740Z,101146.88
2022-09-03T21:03:32.254Z,101140.81
2022-09-03T21:06:13.981Z,101148.81
2022-09-03T21:08:40.445Z,101154.94
2022-09-03T21:11:29.420Z,101111.31
2022-09-03T21:14:06.521Z,101137.00
2022-09-03T21:16:57.871Z,101156.16
2022-09-03T21:19:24.291Z,101159.69
2022-09-03T21:22:13.427Z,101123.84
2022-09-03T21:24:54.836Z,101155.44
2022-09-03T21:27:27.022Z,101133.59
2022-09-03T21:30:01.975Z,101168.00
2022-09-03T21:32:58.384Z,101174.25
2022-09-03T21:35:34.312Z,101171.75
2022-09-03T21:38:08.188Z,101155.63
2022-09-03T21:40:47.011Z,101160.06
2022-09-03T21:43:28.438Z,101178.34
2022-09-03T21:46:13.544Z,101145.03
2022-09-03T21:48:47.085Z,101178.47
2022-09-03T21:51:18.892Z,101175.91
2022-09-03T21:53:55.765Z,101143.44
2022-09-03T21:56:54.911Z,101142.84
2022-09-03T21:59:47.312Z,101191.28
2022-09-03T22:02:19.637Z,101190.53
2022-09-03T22:04:46.117Z,101196.84
2022-09-03T22:07:22.935Z,101191.00
2022-09-03T22:10:02.950Z,101187.84
2022-09-03T22:12:46.026Z,101188.84
2022-09-03T22:15:14.473Z,101187.97
2022-09-03T22:17:47.891Z,101164.09
2022-09-03T22:20:15.481Z,101191.59
2022-09-03T22:22:54.324Z,101154.03
2022-09-03T22:25:29.292Z,101203.41
2022-09-03T22:28:02.449Z,101194.78
2022-09-03T22:31:01.429Z,101202.94
2022-09-03T22:33:48.129Z,101199.44
2022-09-03T22:36:18.239Z,101204.03
2022-09-03T22:39:05.873Z,101205.06
2022-09-03T22:41:46.632Z,101204.34
2022-09-03T22:44:55.247Z,101203.69
2022-09-03T22:47:33.781Z,101198.50
2022-09-03T22:50:20.094Z,101203.03
2022-09-03T22:53:28.622Z,101201.44
2022-09-03T22:56:07.875Z,101167.25
2022-09-03T22:58:40.780Z,101202.59
2022-09-03T23:01:13.703Z,101212.47
2022-09-03T23:03:48.235Z,101205.53
2022-09-03T23:06:26.682Z,101204.00
2022-09-03T23:09:15.457Z,101196.47
2022-09-03T23:11:52.811Z,101160.38
2022-09-03T23:14:35.165Z,101198.25
2022-09-03T23:17:18.140Z,101201.88
2022-09-03T23:19:51.687Z,101202.88
2022-09-03T23:22:43.608Z,101205.69
2022-09-03T23:25:23.030Z,101169.84
2022-09-03T23:28:02.049Z,101200.59
2022-09-03T23:30:28.933Z,101199.81
2022-09-03T23:32:58.187Z,101203.44
2022-09-03T23:35:30.241Z,101166.69
2022-09-03T23:38:14.846Z,101202.75
2022-09-03T23:40:57.903Z,101162.44
2022-09-03T23:43:48.703Z,101198.63
2022-09-03T23:46:33.862Z,101201.50
2022-09-03T23:49:22.022Z,101216.63
2022-09-03T23:51:56.674Z,101189.31
2022-09-03T23:55:03.494Z,101209.09
2022-09-03T23:57:39.589Z,101211.84
